sensor_id;sensor_type;location;lat;lon;timestamp;temperature;humidity
20319;DHT22;10317;47.254;11.314;2022-07-23T00:00:10;18.50;99.90
20319;DHT22;10317;47.254;11.314;2022-07-23T00:02:36;18.60;99.90
20319;DHT22;10317;47.254;11.314;2022-07-23T00:05:02;18.60;99.90
20319;DHT22;10317;47.254;11.314;2022-07-23T00:07:28;18.60;99.90
20319;DHT22;10317;47.254;11.314;2022-07-23T00:09:54;18.60;99.90
20319;DHT22;10317;47.254;11.314;2022-07-23T00:12:21;18.60;99.90
20319;DHT22;10317;47.254;11.314;2022-07-23T00:14:47;18.60;99.90
20319;DHT22;10317;47.254;11.314;2022-07-23T00:17:12;18.60;99.90
20319;DHT22;10317;47.254;11.314;2022-07-23T00:19:38;18.60;99.90
20319;DHT22;10317;47.254;11.314;2022-07-23T00:22:04;18.60;99.90
20319;DHT22;10317;47.254;11.314;2022-07-23T00:24:29;18.60;99.90
20319;DHT22;10317;47.254;11.314;2022-07-23T00:26:55;18.60;99.90
20319;DHT22;10317;47.254;11.314;2022-07-23T00:29:21;18.50;99.90
20319;DHT22;10317;47.254;11.314;2022-07-23T00:31:47;18.60;99.90
20319;DHT22;10317;47.254;11.314;2022-07-23T00:34:12;18.60;99.90
20319;DHT22;10317;47.254;11.314;2022-07-23T00:36:38;18.60;99.90
20319;DHT22;10317;47.254;11.314;2022-07-23T00:39:04;18.50;99.90
20319;DHT22;10317;47.254;11.314;2022-07-23T00:41:30;18.50;99.90
20319;DHT22;10317;47.254;11.314;2022-07-23T00:44:13;18.50;99.90
20319;DHT22;10317;47.254;11.314;2022-07-23T00:46:45;18.60;99.90
20319;DHT22;10317;47.254;11.314;2022-07-23T00:49:11;18.60;99.90
20319;DHT22;10317;47.254;11.314;2022-07-23T00:51:37;18.50;99.90
20319;DHT22;10317;47.254;11.314;2022-07-23T00:54:02;18.50;99.90
20319;DHT22;10317;47.254;11.314;2022-07-23T00:56:29;18.50;99.90
20319;DHT22;10317;47.254;11.314;2022-07-23T00:58:56;18.50;99.90
20319;DHT22;10317;47.254;11.314;2022-07-23T01:01:22;18.50;99.90
20319;DHT22;10317;47.254;11.314;2022-07-23T01:03:48;18.60;99.90
20319;DHT22;10317;47.254;11.314;2022-07-23T01:06:14;18.50;99.90
20319;DHT22;10317;47.254;11.314;2022-07-23T01:08:40;18.50;99.90
20319;DHT22;10317;47.254;11.314;2022-07-23T01:11:06;18.50;99.90
20319;DHT22;10317;47.254;11.314;2022-07-23T01:13:32;18.50;99.90
20319;DHT22;10317;47.254;11.314;2022-07-23T01:15:58;18.50;99.90
20319;DHT22;10317;47.254;11.314;2022-07-23T01:18:23;18.50;99.90
20319;DHT22;10317;47.254;11.314;2022-07-23T01:20:49;18.50;99.90
20319;DHT22;10317;47.254;11.314;2022-07-23T01:23:15;18.50;99.90
20319;DHT22;10317;47.254;11.314;2022-07-23T01:25:54;18.40;99.90
20319;DHT22;10317;47.254;11.314;2022-07-23T01:28:20;18.40;99.90
20319;DHT22;10317;47.254;11.314;2022-07-23T01:30:46;18.40;99.90
20319;DHT22;10317;47.254;11.314;2022-07-23T01:33:12;18.40;99.90
20319;DHT22;10317;47.254;11.314;2022-07-23T01:35:38;18.30;99.90
20319;DHT22;10317;47.254;11.314;2022-07-23T01:38:03;18.40;99.90
20319;DHT22;10317;47.254;11.314;2022-07-23T01:40:29;18.40;99.90
20319;DHT22;10317;47.254;11.314;2022-07-23T01:42:55;18.40;99.90
20319;DHT22;10317;47.254;11.314;2022-07-23T01:45:21;18.30;99.90
20319;DHT22;10317;47.254;11.314;2022-07-23T01:47:47;18.30;99.90
20319;DHT22;10317;47.254;11.314;2022-07-23T01:50:13;18.20;99.90
20319;DHT22;10317;47.254;11.314;2022-07-23T01:52:39;18.30;99.90
20319;DHT22;10317;47.254;11.314;2022-07-23T01:55:05;18.40;99.90
20319;DHT22;10317;47.254;11.314;2022-07-23T01:57:31;18.40;99.90
20319;DHT22;10317;47.254;11.314;2022-07-23T01:59:57;18.40;99.90
20319;DHT22;10317;47.254;11.314;2022-07-23T02:02:23;18.40;99.90
20319;DHT22;10317;47.254;11.314;2022-07-23T02:04:49;18.30;99.90
20319;DHT22;10317;47.254;11.314;2022-07-23T02:07:14;18.30;99.90
20319;DHT22;10317;47.254;11.314;2022-07-23T02:09:40;18.30;99.90
20319;DHT22;10317;47.254;11.314;2022-07-23T02:12:06;18.30;99.90
20319;DHT22;10317;47.254;11.314;2022-07-23T02:14:32;18.30;99.90
20319;DHT22;10317;47.254;11.314;2022-07-23T02:16:57;18.30;99.90
20319;DHT22;10317;47.254;11.314;2022-07-23T02:19:23;18.40;99.90
20319;DHT22;10317;47.254;11.314;2022-07-23T02:21:49;18.30;99.90
20319;DHT22;10317;47.254;11.314;2022-07-23T02:24:15;18.30;99.90
20319;DHT22;10317;47.254;11.314;2022-07-23T02:26:40;18.30;99.90
20319;DHT22;10317;47.254;11.314;2022-07-23T02:29:06;18.30;99.90
20319;DHT22;10317;47.254;11.314;2022-07-23T02:31:32;18.30;99.90
20319;DHT22;10317;47.254;11.314;2022-07-23T02:33:58;18.30;99.90
20319;DHT22;10317;47.254;11.314;2022-07-23T02:36:24;18.30;99.90
20319;DHT22;10317;47.254;11.314;2022-07-23T02:38:50;18.40;99.90
20319;DHT22;10317;47.254;11.314;2022-07-23T02:41:16;18.30;99.90
20319;DHT22;10317;47.254;11.314;2022-07-23T02:43:41;18.30;99.90
20319;DHT22;10317;47.254;11.314;2022-07-23T02:46:07;18.20;99.90
20319;DHT22;10317;47.254;11.314;2022-07-23T02:48:33;18.30;99.90
20319;DHT22;10317;47.254;11.314;2022-07-23T02:50:59;18.30;99.90
20319;DHT22;10317;47.254;11.314;2022-07-23T02:53:25;18.40;99.90
20319;DHT22;10317;47.254;11.314;2022-07-23T02:55:50;18.40;99.90
20319;DHT22;10317;47.254;11.314;2022-07-23T02:58:16;18.30;99.90
20319;DHT22;10317;47.254;11.314;2022-07-23T03:00:42;18.30;99.90
20319;DHT22;10317;47.254;11.314;2022-07-23T03:03:08;18.30;99.90
20319;DHT22;10317;47.254;11.314;2022-07-23T03:05:34;18.30;99.90
20319;DHT22;10317;47.254;11.314;2022-07-23T03:07:59;18.40;99.90
20319;DHT22;10317;47.254;11.314;2022-07-23T03:10:26;18.40;99.90
20319;DHT22;10317;47.254;11.314;2022-07-23T03:12:51;18.40;99.90
20319;DHT22;10317;47.254;11.314;2022-07-23T03:15:17;18.40;99.90
20319;DHT22;10317;47.254;11.314;2022-07-23T03:17:43;18.50;99.90
20319;DHT22;10317;47.254;11.314;2022-07-23T03:20:09;18.50;99.90
20319;DHT22;10317;47.254;11.314;2022-07-23T03:22:35;18.50;99.90
20319;DHT22;10317;47.254;11.314;2022-07-23T03:25:01;18.50;99.90
20319;DHT22;10317;47.254;11.314;2022-07-23T03:27:28;18.50;99.90
20319;DHT22;10317;47.254;11.314;2022-07-23T03:29:56;18.40;99.90
20319;DHT22;10317;47.254;11.314;2022-07-23T03:32:23;18.40;99.90
20319;DHT22;10317;47.254;11.314;2022-07-23T03:34:49;18.40;99.90
20319;DHT22;10317;47.254;11.314;2022-07-23T03:37:15;18.30;99.90
20319;DHT22;10317;47.254;11.314;2022-07-23T03:39:41;18.30;99.90
20319;DHT22;10317;47.254;11.314;2022-07-23T03:42:07;18.30;99.90
20319;DHT22;10317;47.254;11.314;2022-07-23T03:44:33;18.30;99.90
20319;DHT22;10317;47.254;11.314;2022-07-23T03:46:59;18.20;99.90
20319;DHT22;10317;47.254;11.314;2022-07-23T03:49:25;18.20;99.90
20319;DHT22;10317;47.254;11.314;2022-07-23T03:51:51;18.20;99.90
20319;DHT22;10317;47.254;11.314;2022-07-23T03:54:16;18.20;99.90
20319;DHT22;10317;47.254;11.314;2022-07-23T03:56:42;18.20;99.90
20319;DHT22;10317;47.254;11.314;2022-07-23T03:59:09;18.20;99.90
20319;DHT22;10317;47.254;11.314;2022-07-23T04:01:35;18.20;99.90
20319;DHT22;10317;47.254;11.314;2022-07-23T04:04:02;18.20;99.90
20319;DHT22;10317;47.254;11.314;2022-07-23T04:06:28;18.20;99.90
20319;DHT22;10317;47.254;11.314;2022-07-23T04:08:54;18.20;99.90
20319;DHT22;10317;47.254;11.314;2022-07-23T04:11:19;18.20;99.90
20319;DHT22;10317;47.254;11.314;2022-07-23T04:13:45;18.10;99.90
20319;DHT22;10317;47.254;11.314;2022-07-23T04:16:11;18.00;99.90
20319;DHT22;10317;47.254;11.314;2022-07-23T04:18:37;18.10;99.90
20319;DHT22;10317;47.254;11.314;2022-07-23T04:21:02;18.10;99.90
20319;DHT22;10317;47.254;11.314;2022-07-23T04:23:28;18.00;99.90
20319;DHT22;10317;47.254;11.314;2022-07-23T04:25:54;17.90;99.90
20319;DHT22;10317;47.254;11.314;2022-07-23T04:28:19;17.90;99.90
20319;DHT22;10317;47.254;11.314;2022-07-23T04:30:45;17.90;99.90
20319;DHT22;10317;47.254;11.314;2022-07-23T04:33:11;17.80;99.90
20319;DHT22;10317;47.254;11.314;2022-07-23T04:35:36;17.80;99.90
20319;DHT22;10317;47.254;11.314;2022-07-23T04:38:03;17.80;99.90
20319;DHT22;10317;47.254;11.314;2022-07-23T04:40:29;17.80;99.90
20319;DHT22;10317;47.254;11.314;2022-07-23T04:42:55;17.80;99.90
20319;DHT22;10317;47.254;11.314;2022-07-23T04:45:20;17.80;99.90
20319;DHT22;10317;47.254;11.314;2022-07-23T04:47:46;17.80;99.90
20319;DHT22;10317;47.254;11.314;2022-07-23T04:50:12;17.80;99.90
20319;DHT22;10317;47.254;11.314;2022-07-23T04:52:38;17.70;99.90
20319;DHT22;10317;47.254;11.314;2022-07-23T04:55:04;17.70;99.90
20319;DHT22;10317;47.254;11.314;2022-07-23T04:57:29;17.60;99.90
20319;DHT22;10317;47.254;11.314;2022-07-23T04:59:55;17.60;99.90
20319;DHT22;10317;47.254;11.314;2022-07-23T05:02:21;17.50;99.90
20319;DHT22;10317;47.254;11.314;2022-07-23T05:04:47;17.50;99.90
20319;DHT22;10317;47.254;11.314;2022-07-23T05:07:12;17.50;99.90
20319;DHT22;10317;47.254;11.314;2022-07-23T05:09:38;17.50;99.90
20319;DHT22;10317;47.254;11.314;2022-07-23T05:12:04;17.60;99.90
20319;DHT22;10317;47.254;11.314;2022-07-23T05:14:30;17.50;99.90
20319;DHT22;10317;47.254;11.314;2022-07-23T05:16:56;17.50;99.90
20319;DHT22;10317;47.254;11.314;2022-07-23T05:19:22;17.60;99.90
20319;DHT22;10317;47.254;11.314;2022-07-23T05:21:47;17.60;99.90
20319;DHT22;10317;47.254;11.314;2022-07-23T05:24:13;17.60;99.90
20319;DHT22;10317;47.254;11.314;2022-07-23T05:26:39;17.60;99.90
20319;DHT22;10317;47.254;11.314;2022-07-23T05:29:04;17.60;99.90
20319;DHT22;10317;47.254;11.314;2022-07-23T05:31:30;17.60;99.90
20319;DHT22;10317;47.254;11.314;2022-07-23T05:33:56;17.60;99.90
20319;DHT22;10317;47.254;11.314;2022-07-23T05:36:21;17.70;99.90
20319;DHT22;10317;47.254;11.314;2022-07-23T05:38:47;17.70;99.90
20319;DHT22;10317;47.254;11.314;2022-07-23T05:41:13;17.60;99.90
20319;DHT22;10317;47.254;11.314;2022-07-23T05:43:38;17.70;99.90
20319;DHT22;10317;47.254;11.314;2022-07-23T05:46:04;17.70;99.90
20319;DHT22;10317;47.254;11.314;2022-07-23T05:48:30;17.70;99.90
20319;DHT22;10317;47.254;11.314;2022-07-23T05:50:55;17.70;99.90
20319;DHT22;10317;47.254;11.314;2022-07-23T05:53:21;17.70;99.90
20319;DHT22;10317;47.254;11.314;2022-07-23T05:55:47;17.70;99.90
20319;DHT22;10317;47.254;11.314;2022-07-23T05:58:12;17.80;99.90
20319;DHT22;10317;47.254;11.314;2022-07-23T06:00:38;17.80;99.90
20319;DHT22;10317;47.254;11.314;2022-07-23T06:03:04;17.90;99.90
20319;DHT22;10317;47.254;11.314;2022-07-23T06:05:29;17.90;99.90
20319;DHT22;10317;47.254;11.314;2022-07-23T06:07:55;17.90;99.90
20319;DHT22;10317;47.254;11.314;2022-07-23T06:10:21;18.00;99.90
20319;DHT22;10317;47.254;11.314;2022-07-23T06:12:46;18.00;99.90
20319;DHT22;10317;47.254;11.314;2022-07-23T06:15:12;18.10;99.90
20319;DHT22;10317;47.254;11.314;2022-07-23T06:17:39;18.20;99.90
20319;DHT22;10317;47.254;11.314;2022-07-23T06:20:06;18.20;99.90
20319;DHT22;10317;47.254;11.314;2022-07-23T06:22:32;18.30;99.90
20319;DHT22;10317;47.254;11.314;2022-07-23T06:24:58;18.30;99.90
20319;DHT22;10317;47.254;11.314;2022-07-23T07:21:05;18.60;99.90
20319;DHT22;10317;47.254;11.314;2022-07-23T07:23:31;18.90;99.90
20319;DHT22;10317;47.254;11.314;2022-07-23T07:25:56;19.00;99.90
20319;DHT22;10317;47.254;11.314;2022-07-23T07:28:22;19.20;99.90
20319;DHT22;10317;47.254;11.314;2022-07-23T07:30:48;19.40;99.90
20319;DHT22;10317;47.254;11.314;2022-07-23T07:33:13;19.50;99.90
20319;DHT22;10317;47.254;11.314;2022-07-23T07:35:39;19.50;99.90
20319;DHT22;10317;47.254;11.314;2022-07-23T07:38:05;19.50;99.90
20319;DHT22;10317;47.254;11.314;2022-07-23T07:40:30;19.50;99.90
20319;DHT22;10317;47.254;11.314;2022-07-23T07:42:56;19.60;99.90
20319;DHT22;10317;47.254;11.314;2022-07-23T07:45:23;19.90;99.90
20319;DHT22;10317;47.254;11.314;2022-07-23T07:47:50;20.20;99.90
20319;DHT22;10317;47.254;11.314;2022-07-23T07:50:19;20.60;99.90
20319;DHT22;10317;47.254;11.314;2022-07-23T07:52:45;20.80;99.90
20319;DHT22;10317;47.254;11.314;2022-07-23T07:55:11;21.10;99.90
20319;DHT22;10317;47.254;11.314;2022-07-23T07:57:37;21.00;99.90
20319;DHT22;10317;47.254;11.314;2022-07-23T08:00:08;20.90;99.90
20319;DHT22;10317;47.254;11.314;2022-07-23T08:02:48;20.60;99.90
20319;DHT22;10317;47.254;11.314;2022-07-23T08:05:14;20.50;99.90
20319;DHT22;10317;47.254;11.314;2022-07-23T08:07:40;20.40;99.90
20319;DHT22;10317;47.254;11.314;2022-07-23T08:10:10;20.40;99.90
20319;DHT22;10317;47.254;11.314;2022-07-23T08:12:47;20.40;99.90
20319;DHT22;10317;47.254;11.314;2022-07-23T08:15:15;20.40;99.90
20319;DHT22;10317;47.254;11.314;2022-07-23T08:17:42;20.50;99.90
20319;DHT22;10317;47.254;11.314;2022-07-23T08:20:09;20.40;99.90
20319;DHT22;10317;47.254;11.314;2022-07-23T08:22:50;20.40;99.90
20319;DHT22;10317;47.254;11.314;2022-07-23T08:25:21;20.30;99.90
20319;DHT22;10317;47.254;11.314;2022-07-23T08:27:47;20.20;99.90
20319;DHT22;10317;47.254;11.314;2022-07-23T08:30:13;20.20;99.90
20319;DHT22;10317;47.254;11.314;2022-07-23T08:32:56;20.30;99.90
20319;DHT22;10317;47.254;11.314;2022-07-23T08:37:56;20.70;99.90
20319;DHT22;10317;47.254;11.314;2022-07-23T08:40:22;21.00;99.90
20319;DHT22;10317;47.254;11.314;2022-07-23T08:42:50;21.30;99.90
20319;DHT22;10317;47.254;11.314;2022-07-23T08:45:17;21.60;99.50
20319;DHT22;10317;47.254;11.314;2022-07-23T08:47:44;22.10;98.90
20319;DHT22;10317;47.254;11.314;2022-07-23T08:50:10;22.30;98.10
20319;DHT22;10317;47.254;11.314;2022-07-23T08:52:37;22.80;97.50
20319;DHT22;10317;47.254;11.314;2022-07-23T08:55:03;22.80;96.50
20319;DHT22;10317;47.254;11.314;2022-07-23T08:57:29;22.90;96.90
20319;DHT22;10317;47.254;11.314;2022-07-23T08:59:54;22.60;96.90
20319;DHT22;10317;47.254;11.314;2022-07-23T09:02:21;22.40;96.50
20319;DHT22;10317;47.254;11.314;2022-07-23T09:04:47;22.40;96.20
20319;DHT22;10317;47.254;11.314;2022-07-23T09:07:13;22.50;97.40
20319;DHT22;10317;47.254;11.314;2022-07-23T09:09:39;22.80;97.50
20319;DHT22;10317;47.254;11.314;2022-07-23T09:12:07;23.20;96.10
20319;DHT22;10317;47.254;11.314;2022-07-23T09:14:44;23.60;95.00
20319;DHT22;10317;47.254;11.314;2022-07-23T09:17:18;23.90;95.30
20319;DHT22;10317;47.254;11.314;2022-07-23T09:19:44;24.30;95.20
20319;DHT22;10317;47.254;11.314;2022-07-23T09:22:25;24.90;93.40
20319;DHT22;10317;47.254;11.314;2022-07-23T09:47:32;24.40;90.30
20319;DHT22;10317;47.254;11.314;2022-07-23T09:52:32;24.50;90.10
20319;DHT22;10317;47.254;11.314;2022-07-23T09:55:03;24.40;89.60
20319;DHT22;10317;47.254;11.314;2022-07-23T09:57:29;24.60;90.20
20319;DHT22;10317;47.254;11.314;2022-07-23T09:59:59;24.70;91.40
20319;DHT22;10317;47.254;11.314;2022-07-23T10:02:26;24.80;88.90
20319;DHT22;10317;47.254;11.314;2022-07-23T10:04:53;24.70;87.10
20319;DHT22;10317;47.254;11.314;2022-07-23T10:07:22;25.00;91.00
20319;DHT22;10317;47.254;11.314;2022-07-23T10:09:50;25.10;89.00
20319;DHT22;10317;47.254;11.314;2022-07-23T10:12:18;25.40;87.20
20319;DHT22;10317;47.254;11.314;2022-07-23T10:14:54;25.70;89.00
20319;DHT22;10317;47.254;11.314;2022-07-23T10:17:21;25.50;90.20
20319;DHT22;10317;47.254;11.314;2022-07-23T10:19:46;25.70;90.10
20319;DHT22;10317;47.254;11.314;2022-07-23T10:22:20;25.90;90.00
20319;DHT22;10317;47.254;11.314;2022-07-23T10:33:24;26.50;80.00
20319;DHT22;10317;47.254;11.314;2022-07-23T10:36:09;26.80;81.30
20319;DHT22;10317;47.254;11.314;2022-07-23T10:41:15;27.20;76.60
20319;DHT22;10317;47.254;11.314;2022-07-23T10:44:08;27.20;79.40
20319;DHT22;10317;47.254;11.314;2022-07-23T10:46:34;27.30;76.40
20319;DHT22;10317;47.254;11.314;2022-07-23T10:49:25;27.50;76.70
20319;DHT22;10317;47.254;11.314;2022-07-23T10:54:42;27.40;72.70
20319;DHT22;10317;47.254;11.314;2022-07-23T10:57:09;27.30;76.70
20319;DHT22;10317;47.254;11.314;2022-07-23T11:02:28;27.30;76.80
20319;DHT22;10317;47.254;11.314;2022-07-23T11:05:00;27.30;80.00
20319;DHT22;10317;47.254;11.314;2022-07-23T11:07:25;27.40;80.10
20319;DHT22;10317;47.254;11.314;2022-07-23T11:09:51;27.40;73.30
20319;DHT22;10317;47.254;11.314;2022-07-23T11:17:37;27.00;75.30
20319;DHT22;10317;47.254;11.314;2022-07-23T11:25:09;26.70;72.70
20319;DHT22;10317;47.254;11.314;2022-07-23T11:27:44;27.00;73.50
20319;DHT22;10317;47.254;11.314;2022-07-23T11:35:46;27.00;71.30
20319;DHT22;10317;47.254;11.314;2022-07-23T11:38:20;27.30;70.40
20319;DHT22;10317;47.254;11.314;2022-07-23T11:40:49;27.60;69.70
20319;DHT22;10317;47.254;11.314;2022-07-23T11:43:15;27.40;68.70
20319;DHT22;10317;47.254;11.314;2022-07-23T11:45:44;27.30;69.50
20319;DHT22;10317;47.254;11.314;2022-07-23T11:48:37;27.30;66.60
20319;DHT22;10317;47.254;11.314;2022-07-23T11:51:02;27.10;71.70
20319;DHT22;10317;47.254;11.314;2022-07-23T11:53:30;27.10;73.80
20319;DHT22;10317;47.254;11.314;2022-07-23T11:56:06;27.20;74.60
20319;DHT22;10317;47.254;11.314;2022-07-23T11:58:32;27.10;71.50
20319;DHT22;10317;47.254;11.314;2022-07-23T12:00:58;27.00;75.10
20319;DHT22;10317;47.254;11.314;2022-07-23T12:03:24;27.10;76.90
20319;DHT22;10317;47.254;11.314;2022-07-23T12:05:56;27.00;78.70
20319;DHT22;10317;47.254;11.314;2022-07-23T12:08:22;27.00;81.30
20319;DHT22;10317;47.254;11.314;2022-07-23T12:10:48;27.00;79.80
20319;DHT22;10317;47.254;11.314;2022-07-23T12:13:16;26.80;78.10
20319;DHT22;10317;47.254;11.314;2022-07-23T12:15:47;26.80;79.80
20319;DHT22;10317;47.254;11.314;2022-07-23T12:18:18;26.80;78.10
20319;DHT22;10317;47.254;11.314;2022-07-23T12:20:47;26.70;78.40
20319;DHT22;10317;47.254;11.314;2022-07-23T12:23:16;26.70;81.50
20319;DHT22;10317;47.254;11.314;2022-07-23T12:25:44;26.90;83.10
20319;DHT22;10317;47.254;11.314;2022-07-23T12:28:16;26.70;82.00
20319;DHT22;10317;47.254;11.314;2022-07-23T12:33:35;26.80;85.50
20319;DHT22;10317;47.254;11.314;2022-07-23T12:36:03;27.10;84.20
20319;DHT22;10317;47.254;11.314;2022-07-23T12:38:41;27.30;75.80
20319;DHT22;10317;47.254;11.314;2022-07-23T12:41:07;27.30;75.80
20319;DHT22;10317;47.254;11.314;2022-07-23T12:43:36;27.50;79.60
20319;DHT22;10317;47.254;11.314;2022-07-23T12:46:11;27.50;76.60
20319;DHT22;10317;47.254;11.314;2022-07-23T12:48:39;27.60;77.30
20319;DHT22;10317;47.254;11.314;2022-07-23T12:51:06;27.60;78.30
20319;DHT22;10317;47.254;11.314;2022-07-23T12:53:41;27.70;80.50
20319;DHT22;10317;47.254;11.314;2022-07-23T12:56:13;27.60;69.80
20319;DHT22;10317;47.254;11.314;2022-07-23T12:58:58;27.10;75.60
20319;DHT22;10317;47.254;11.314;2022-07-23T13:01:31;27.10;79.70
20319;DHT22;10317;47.254;11.314;2022-07-23T13:06:37;27.00;83.40
20319;DHT22;10317;47.254;11.314;2022-07-23T13:09:06;26.90;83.10
20319;DHT22;10317;47.254;11.314;2022-07-23T13:11:32;26.80;83.70
20319;DHT22;10317;47.254;11.314;2022-07-23T13:13:59;26.60;84.50
20319;DHT22;10317;47.254;11.314;2022-07-23T13:16:27;26.50;85.10
20319;DHT22;10317;47.254;11.314;2022-07-23T13:18:52;26.30;86.40
20319;DHT22;10317;47.254;11.314;2022-07-23T14:02:15;23.90;94.60
20319;DHT22;10317;47.254;11.314;2022-07-23T14:04:43;23.90;96.10
20319;DHT22;10317;47.254;11.314;2022-07-23T14:07:09;23.90;96.30
20319;DHT22;10317;47.254;11.314;2022-07-23T14:09:34;23.90;96.70
20319;DHT22;10317;47.254;11.314;2022-07-23T14:12:00;24.10;96.50
20319;DHT22;10317;47.254;11.314;2022-07-23T14:14:26;24.20;96.70
20319;DHT22;10317;47.254;11.314;2022-07-23T14:16:52;24.30;96.20
20319;DHT22;10317;47.254;11.314;2022-07-23T14:19:17;24.50;96.80
20319;DHT22;10317;47.254;11.314;2022-07-23T14:21:43;24.70;96.70
20319;DHT22;10317;47.254;11.314;2022-07-23T14:24:09;25.00;97.00
20319;DHT22;10317;47.254;11.314;2022-07-23T14:26:34;25.20;97.10
20319;DHT22;10317;47.254;11.314;2022-07-23T14:29:01;25.30;96.60
20319;DHT22;10317;47.254;11.314;2022-07-23T14:31:27;25.30;97.60
20319;DHT22;10317;47.254;11.314;2022-07-23T14:33:52;25.30;96.60
20319;DHT22;10317;47.254;11.314;2022-07-23T14:36:18;25.40;95.60
20319;DHT22;10317;47.254;11.314;2022-07-23T14:38:44;25.50;94.10
20319;DHT22;10317;47.254;11.314;2022-07-23T14:41:09;25.50;96.40
20319;DHT22;10317;47.254;11.314;2022-07-23T14:43:36;25.60;95.00
20319;DHT22;10317;47.254;11.314;2022-07-23T14:46:02;25.60;95.20
20319;DHT22;10317;47.254;11.314;2022-07-23T14:48:28;25.60;95.80
20319;DHT22;10317;47.254;11.314;2022-07-23T14:50:53;25.60;95.20
20319;DHT22;10317;47.254;11.314;2022-07-23T14:53:19;25.60;94.70
20319;DHT22;10317;47.254;11.314;2022-07-23T14:55:45;25.50;94.20
20319;DHT22;10317;47.254;11.314;2022-07-23T14:58:11;25.30;94.30
20319;DHT22;10317;47.254;11.314;2022-07-23T15:00:36;25.30;94.40
20319;DHT22;10317;47.254;11.314;2022-07-23T15:03:02;25.10;95.30
20319;DHT22;10317;47.254;11.314;2022-07-23T15:05:28;25.00;95.50
20319;DHT22;10317;47.254;11.314;2022-07-23T15:07:54;25.00;95.90
20319;DHT22;10317;47.254;11.314;2022-07-23T15:10:20;24.80;96.50
20319;DHT22;10317;47.254;11.314;2022-07-23T15:12:46;24.80;96.60
20319;DHT22;10317;47.254;11.314;2022-07-23T15:15:12;24.70;97.00
20319;DHT22;10317;47.254;11.314;2022-07-23T15:17:38;24.50;97.10
20319;DHT22;10317;47.254;11.314;2022-07-23T15:20:05;24.40;97.20
20319;DHT22;10317;47.254;11.314;2022-07-23T15:22:31;24.20;97.10
20319;DHT22;10317;47.254;11.314;2022-07-23T15:24:56;24.00;96.70
20319;DHT22;10317;47.254;11.314;2022-07-23T15:27:22;23.80;97.10
20319;DHT22;10317;47.254;11.314;2022-07-23T15:29:48;23.70;97.20
20319;DHT22;10317;47.254;11.314;2022-07-23T15:32:13;23.60;97.40
20319;DHT22;10317;47.254;11.314;2022-07-23T15:34:39;23.50;97.60
20319;DHT22;10317;47.254;11.314;2022-07-23T15:37:05;23.40;97.80
20319;DHT22;10317;47.254;11.314;2022-07-23T15:39:32;23.20;98.10
20319;DHT22;10317;47.254;11.314;2022-07-23T15:42:01;23.10;98.40
20319;DHT22;10317;47.254;11.314;2022-07-23T15:44:27;23.00;99.10
20319;DHT22;10317;47.254;11.314;2022-07-23T15:46:53;22.90;99.70
20319;DHT22;10317;47.254;11.314;2022-07-23T15:49:19;22.80;99.90
20319;DHT22;10317;47.254;11.314;2022-07-23T15:51:45;22.70;99.90
20319;DHT22;10317;47.254;11.314;2022-07-23T15:54:11;22.50;99.90
20319;DHT22;10317;47.254;11.314;2022-07-23T15:56:36;22.40;99.90
20319;DHT22;10317;47.254;11.314;2022-07-23T15:59:02;22.20;99.90
20319;DHT22;10317;47.254;11.314;2022-07-23T16:01:28;22.10;99.90
20319;DHT22;10317;47.254;11.314;2022-07-23T16:03:57;22.00;99.90
20319;DHT22;10317;47.254;11.314;2022-07-23T16:06:24;21.90;99.90
20319;DHT22;10317;47.254;11.314;2022-07-23T16:08:51;21.90;99.90
20319;DHT22;10317;47.254;11.314;2022-07-23T16:11:16;21.80;99.90
20319;DHT22;10317;47.254;11.314;2022-07-23T16:13:43;21.70;99.90
20319;DHT22;10317;47.254;11.314;2022-07-23T16:16:10;21.60;99.90
20319;DHT22;10317;47.254;11.314;2022-07-23T16:18:37;21.50;99.90
20319;DHT22;10317;47.254;11.314;2022-07-23T16:21:04;21.40;99.90
20319;DHT22;10317;47.254;11.314;2022-07-23T16:23:29;21.40;99.90
20319;DHT22;10317;47.254;11.314;2022-07-23T16:25:55;21.40;99.90
20319;DHT22;10317;47.254;11.314;2022-07-23T16:28:21;21.50;99.90
20319;DHT22;10317;47.254;11.314;2022-07-23T16:30:47;21.50;99.90
20319;DHT22;10317;47.254;11.314;2022-07-23T16:33:12;21.50;99.90
20319;DHT22;10317;47.254;11.314;2022-07-23T16:35:38;21.50;99.90
20319;DHT22;10317;47.254;11.314;2022-07-23T16:38:04;21.60;99.90
20319;DHT22;10317;47.254;11.314;2022-07-23T16:40:31;21.60;99.90
20319;DHT22;10317;47.254;11.314;2022-07-23T16:42:57;21.60;99.90
20319;DHT22;10317;47.254;11.314;2022-07-23T16:45:23;21.70;99.90
20319;DHT22;10317;47.254;11.314;2022-07-23T16:47:49;21.70;99.90
20319;DHT22;10317;47.254;11.314;2022-07-23T16:50:16;21.70;99.90
20319;DHT22;10317;47.254;11.314;2022-07-23T16:52:42;21.80;99.90
20319;DHT22;10317;47.254;11.314;2022-07-23T16:55:08;21.80;99.90
20319;DHT22;10317;47.254;11.314;2022-07-23T16:57:34;21.70;99.90
20319;DHT22;10317;47.254;11.314;2022-07-23T17:00:00;21.80;99.90
20319;DHT22;10317;47.254;11.314;2022-07-23T17:02:26;21.80;99.90
20319;DHT22;10317;47.254;11.314;2022-07-23T17:04:51;21.80;99.90
20319;DHT22;10317;47.254;11.314;2022-07-23T17:07:19;21.90;99.90
20319;DHT22;10317;47.254;11.314;2022-07-23T17:09:45;21.80;99.90
20319;DHT22;10317;47.254;11.314;2022-07-23T17:12:10;21.90;99.90
20319;DHT22;10317;47.254;11.314;2022-07-23T17:14:36;21.90;99.90
20319;DHT22;10317;47.254;11.314;2022-07-23T17:17:03;21.90;99.90
20319;DHT22;10317;47.254;11.314;2022-07-23T17:19:28;22.00;99.90
20319;DHT22;10317;47.254;11.314;2022-07-23T17:21:54;21.90;99.90
20319;DHT22;10317;47.254;11.314;2022-07-23T17:24:20;22.00;99.90
20319;DHT22;10317;47.254;11.314;2022-07-23T17:26:46;22.00;99.90
20319;DHT22;10317;47.254;11.314;2022-07-23T17:29:11;21.90;99.90
20319;DHT22;10317;47.254;11.314;2022-07-23T17:31:37;21.90;99.90
20319;DHT22;10317;47.254;11.314;2022-07-23T17:34:03;21.80;99.90
20319;DHT22;10317;47.254;11.314;2022-07-23T17:36:29;21.80;99.90
20319;DHT22;10317;47.254;11.314;2022-07-23T17:38:54;21.80;99.90
20319;DHT22;10317;47.254;11.314;2022-07-23T17:41:20;21.80;99.90
20319;DHT22;10317;47.254;11.314;2022-07-23T17:43:46;21.70;99.90
20319;DHT22;10317;47.254;11.314;2022-07-23T17:46:12;21.70;99.90
20319;DHT22;10317;47.254;11.314;2022-07-23T17:48:37;21.70;99.90
20319;DHT22;10317;47.254;11.314;2022-07-23T17:51:07;21.60;99.90
20319;DHT22;10317;47.254;11.314;2022-07-23T17:53:33;21.60;99.90